createdAt,value
2018-07-06T00:00:45.726Z,0.00
2018-07-06T00:01:45.698Z,0.00
2018-07-06T00:02:45.685Z,0.00
2018-07-06T00:03:45.628Z,0.00
2018-07-06T00:04:45.667Z,0.00
2018-07-06T00:05:45.676Z,0.00
2018-07-06T00:06:45.644Z,0.00
2018-07-06T00:07:45.631Z,0.00
2018-07-06T00:08:45.635Z,0.00
2018-07-06T00:09:45.607Z,0.00
2018-07-06T00:10:45.619Z,0.00
2018-07-06T00:11:45.611Z,0.00
2018-07-06T00:12:45.578Z,0.00
2018-07-06T00:13:45.573Z,0.00
2018-07-06T00:14:45.558Z,0.00
2018-07-06T00:15:45.570Z,0.00
2018-07-06T00:16:45.533Z,0.00
2018-07-06T00:17:45.526Z,0.00
2018-07-06T00:18:45.511Z,0.00
2018-07-06T00:19:45.503Z,0.00
2018-07-06T00:20:45.515Z,0.00
2018-07-06T00:21:45.481Z,0.00
2018-07-06T00:22:45.472Z,0.00
2018-07-06T00:23:45.454Z,0.00
2018-07-06T00:24:45.454Z,0.00
2018-07-06T00:25:45.461Z,0.00
2018-07-06T00:26:45.435Z,0.00
2018-07-06T00:27:45.419Z,0.00
2018-07-06T00:28:45.399Z,0.00
2018-07-06T00:29:45.394Z,0.00
2018-07-06T00:30:45.449Z,0.00
2018-07-06T00:31:45.367Z,0.00
2018-07-06T00:32:45.447Z,0.00
2018-07-06T00:33:45.344Z,0.00
2018-07-06T00:34:45.336Z,0.00
2018-07-06T00:35:45.326Z,0.00
2018-07-06T00:36:45.370Z,0.00
2018-07-06T00:37:45.257Z,0.00
2018-07-06T00:38:45.290Z,0.00
2018-07-06T00:39:45.287Z,0.00
2018-07-06T00:40:45.282Z,0.00
2018-07-06T00:41:45.284Z,0.00
2018-07-06T00:42:45.254Z,0.00
2018-07-06T00:43:45.241Z,0.00
2018-07-06T00:44:45.228Z,0.00
2018-07-06T00:45:45.222Z,0.00
2018-07-06T00:46:45.230Z,0.00
2018-07-06T00:47:45.194Z,0.00
2018-07-06T00:48:45.237Z,0.00
2018-07-06T00:49:45.171Z,0.00
2018-07-06T00:50:45.160Z,0.00
2018-07-06T00:51:45.188Z,0.00
2018-07-06T00:52:45.139Z,0.00
2018-07-06T00:53:45.147Z,0.00
2018-07-06T00:54:45.133Z,0.00
2018-07-06T00:55:45.114Z,0.00
2018-07-06T00:56:45.121Z,0.00
2018-07-06T00:57:45.085Z,0.00
2018-07-06T00:58:45.095Z,0.00
2018-07-06T00:59:45.067Z,0.00
2018-07-06T01:00:45.011Z,0.00
2018-07-06T01:01:45.098Z,0.00
2018-07-06T01:02:45.039Z,0.00
2018-07-06T01:03:45.016Z,0.00
2018-07-06T01:04:44.962Z,0.00
2018-07-06T01:05:44.996Z,0.00
2018-07-06T01:06:45.017Z,0.00
2018-07-06T01:07:44.980Z,0.00
2018-07-06T01:08:44.913Z,0.00
2018-07-06T01:09:44.948Z,0.00
2018-07-06T01:10:44.987Z,0.00
2018-07-06T01:11:44.950Z,0.00
2018-07-06T01:12:44.924Z,0.00
2018-07-06T01:13:44.913Z,0.00
2018-07-06T01:14:44.852Z,0.00
2018-07-06T01:15:44.892Z,0.00
2018-07-06T01:16:44.900Z,0.00
2018-07-06T01:17:44.861Z,0.00
2018-07-06T01:18:44.856Z,0.00
2018-07-06T01:19:44.845Z,0.00
2018-07-06T01:20:44.835Z,0.00
2018-07-06T01:21:44.840Z,0.00
2018-07-06T01:22:44.815Z,0.00
2018-07-06T01:23:44.793Z,0.00
2018-07-06T01:24:44.780Z,0.00
2018-07-06T01:25:44.778Z,0.00
2018-07-06T01:26:44.786Z,0.00
2018-07-06T01:27:44.752Z,0.00
2018-07-06T01:28:44.840Z,0.00
2018-07-06T01:29:44.731Z,0.00
2018-07-06T01:30:44.720Z,0.00
2018-07-06T01:31:44.739Z,0.00
2018-07-06T01:32:44.706Z,0.00
2018-07-06T01:33:44.684Z,0.00
2018-07-06T01:34:44.672Z,0.00
2018-07-06T01:35:44.625Z,0.00
2018-07-06T01:36:44.653Z,0.00
2018-07-06T01:37:44.677Z,0.00
2018-07-06T01:38:44.630Z,0.00
2018-07-06T01:39:44.578Z,0.00
2018-07-06T01:40:44.611Z,0.00
2018-07-06T01:41:44.601Z,0.00
2018-07-06T01:42:44.605Z,0.00
2018-07-06T01:43:44.581Z,0.00
2018-07-06T01:44:44.523Z,0.00
2018-07-06T01:45:44.553Z,0.00
2018-07-06T01:46:44.548Z,0.00
2018-07-06T01:47:44.567Z,0.00
2018-07-06T01:48:44.525Z,0.00
2018-07-06T01:49:44.520Z,0.00
2018-07-06T01:50:44.501Z,0.00
2018-07-06T01:51:44.608Z,0.00
2018-07-06T01:52:44.509Z,0.00
2018-07-06T01:53:44.468Z,0.00
2018-07-06T01:54:44.459Z,0.00
2018-07-06T01:55:44.444Z,0.00
2018-07-06T01:56:44.457Z,0.00
2018-07-06T01:57:44.445Z,0.00
2018-07-06T01:58:44.423Z,0.00
2018-07-06T01:59:44.413Z,0.00
2018-07-06T02:00:44.409Z,0.00
2018-07-06T02:01:44.387Z,0.00
2018-07-06T02:02:44.395Z,0.00
2018-07-06T02:03:44.320Z,0.00
2018-07-06T02:04:44.343Z,0.00
2018-07-06T02:05:44.334Z,0.00
2018-07-06T02:06:44.332Z,0.00
2018-07-06T02:07:44.965Z,0.00
2018-07-06T02:08:44.375Z,0.00
2018-07-06T02:09:44.336Z,0.00
2018-07-06T02:10:44.298Z,0.00
2018-07-06T02:11:44.269Z,0.00
2018-07-06T02:12:44.296Z,0.00
2018-07-06T02:13:44.249Z,0.00
2018-07-06T02:14:44.234Z,0.00
2018-07-06T02:15:44.411Z,0.00
2018-07-06T02:16:44.380Z,0.00
2018-07-06T02:17:44.223Z,0.00
2018-07-06T02:18:44.194Z,0.00
2018-07-06T02:19:44.179Z,0.00
2018-07-06T02:20:44.173Z,0.00
2018-07-06T02:21:44.174Z,0.00
2018-07-06T02:22:44.175Z,0.00
2018-07-06T02:23:44.153Z,0.00
2018-07-06T02:24:44.124Z,0.00
2018-07-06T02:25:44.112Z,0.00
2018-07-06T02:26:44.104Z,0.00
2018-07-06T02:27:44.139Z,0.00
2018-07-06T02:28:44.083Z,0.00
2018-07-06T02:29:44.070Z,0.00
2018-07-06T02:30:44.063Z,0.00
2018-07-06T02:31:44.050Z,0.00
2018-07-06T02:32:44.041Z,0.00
2018-07-06T02:33:44.070Z,0.00
2018-07-06T02:34:44.019Z,0.00
2018-07-06T02:35:44.016Z,0.00
2018-07-06T02:36:43.951Z,4.00
2018-07-06T02:37:43.948Z,4.00
2018-07-06T02:38:43.993Z,4.00
2018-07-06T02:39:43.967Z,0.00
2018-07-06T02:40:43.912Z,4.00
2018-07-06T02:41:43.949Z,4.00
2018-07-06T02:42:43.929Z,4.00
2018-07-06T02:43:43.964Z,4.00
2018-07-06T02:44:43.907Z,4.00
2018-07-06T02:45:43.905Z,4.00
2018-07-06T02:46:43.888Z,4.00
2018-07-06T02:47:43.872Z,8.00
2018-07-06T02:48:43.884Z,8.00
2018-07-06T02:49:43.853Z,8.00
2018-07-06T02:50:43.842Z,8.00
2018-07-06T02:51:43.839Z,12.00
2018-07-06T02:52:43.826Z,12.00
2018-07-06T02:53:43.838Z,12.00
2018-07-06T02:54:43.795Z,16.00
2018-07-06T02:55:43.782Z,16.00
2018-07-06T02:56:43.772Z,20.00
2018-07-06T02:57:43.775Z,20.00
2018-07-06T02:58:43.779Z,24.00
2018-07-06T02:59:43.744Z,28.00
2018-07-06T03:00:43.730Z,32.00
2018-07-06T03:01:43.723Z,36.00
2018-07-06T03:02:43.716Z,44.00
2018-07-06T03:03:43.724Z,48.00
2018-07-06T03:04:43.761Z,52.00
2018-07-06T03:05:43.629Z,60.00
2018-07-06T03:06:43.660Z,64.00
2018-07-06T03:07:43.653Z,72.00
2018-07-06T03:08:43.661Z,80.00
2018-07-06T03:09:43.636Z,92.00
2018-07-06T03:10:43.623Z,100.00
2018-07-06T03:11:43.615Z,112.00
2018-07-06T03:12:43.597Z,124.00
2018-07-06T03:13:43.609Z,136.00
2018-07-06T03:14:43.577Z,148.00
2018-07-06T03:15:43.577Z,160.00
2018-07-06T03:16:43.553Z,180.00
2018-07-06T03:17:43.542Z,192.00
2018-07-06T03:18:43.550Z,212.00
2018-07-06T03:19:43.517Z,232.00
2018-07-06T03:20:43.467Z,252.00
2018-07-06T03:21:43.506Z,268.00
2018-07-06T03:22:43.486Z,292.00
2018-07-06T03:23:43.516Z,316.00
2018-07-06T03:24:43.463Z,340.00
2018-07-06T03:25:43.455Z,372.00
2018-07-06T03:26:43.445Z,400.00
2018-07-06T03:27:43.444Z,428.00
2018-07-06T03:28:43.741Z,460.00
2018-07-06T03:29:43.408Z,492.00
2018-07-06T03:30:43.397Z,528.00
2018-07-06T03:31:43.388Z,564.00
2018-07-06T03:32:43.374Z,604.00
2018-07-06T03:33:43.397Z,648.00
2018-07-06T03:34:43.373Z,688.00
2018-07-06T03:35:43.338Z,732.00
2018-07-06T03:36:43.289Z,772.00
2018-07-06T03:37:43.316Z,816.00
2018-07-06T03:38:43.335Z,864.00
2018-07-06T03:39:43.304Z,908.00
2018-07-06T03:40:43.302Z,960.00
2018-07-06T03:41:43.275Z,1008.00
2018-07-06T03:42:43.262Z,1052.00
2018-07-06T03:43:43.274Z,1108.00
2018-07-06T03:44:43.246Z,1160.00
2018-07-06T03:45:43.226Z,1224.00
2018-07-06T03:46:43.219Z,1288.00
2018-07-06T03:47:43.163Z,1348.00
2018-07-06T03:48:43.224Z,1396.00
2018-07-06T03:49:43.187Z,1452.00
2018-07-06T03:50:43.177Z,1496.00
2018-07-06T03:51:43.163Z,1532.00
2018-07-06T03:52:43.160Z,1560.00
2018-07-06T03:53:43.173Z,1612.00
2018-07-06T03:54:43.127Z,1684.00
2018-07-06T03:55:43.135Z,1764.00
2018-07-06T03:56:43.117Z,1860.00
2018-07-06T03:57:43.099Z,1952.00
2018-07-06T03:58:43.090Z,2048.00
2018-07-06T03:59:43.093Z,2160.00
2018-07-06T04:00:43.026Z,2276.00
2018-07-06T04:01:43.057Z,2392.00
2018-07-06T04:02:43.053Z,2500.00
2018-07-06T04:03:43.010Z,2592.00
2018-07-06T04:04:42.998Z,2684.00
2018-07-06T04:05:43.013Z,2780.00
2018-07-06T04:06:43.007Z,2868.00
2018-07-06T04:07:42.989Z,2964.00
2018-07-06T04:08:42.981Z,3052.00
2018-07-06T04:09:42.940Z,3128.00
2018-07-06T04:10:42.968Z,3224.00
2018-07-06T04:11:42.943Z,3344.00
2018-07-06T04:12:42.948Z,3476.00
2018-07-06T04:13:42.925Z,3572.00
2018-07-06T04:14:42.937Z,3624.00
2018-07-06T04:15:42.897Z,3660.00
2018-07-06T04:16:42.845Z,3736.00
2018-07-06T04:17:42.879Z,3868.00
2018-07-06T04:18:42.865Z,4024.00
2018-07-06T04:19:42.893Z,4172.00
2018-07-06T04:20:42.849Z,4304.00
2018-07-06T04:21:42.833Z,4432.00
2018-07-06T04:22:42.823Z,4528.00
2018-07-06T04:23:42.810Z,4652.00
2018-07-06T04:24:42.828Z,4760.00
2018-07-06T04:25:42.788Z,4740.00
2018-07-06T04:26:42.803Z,4704.00
2018-07-06T04:27:42.768Z,4768.00
2018-07-06T04:28:42.761Z,4928.00
2018-07-06T04:29:42.766Z,5088.00
2018-07-06T04:30:42.740Z,5160.00
2018-07-06T04:31:42.719Z,5212.00
2018-07-06T04:32:42.725Z,5348.00
2018-07-06T04:33:42.704Z,5484.00
2018-07-06T04:34:42.717Z,5788.00
2018-07-06T04:35:42.681Z,6180.00
2018-07-06T04:36:42.673Z,6092.00
2018-07-06T04:37:42.666Z,6152.00
2018-07-06T04:38:42.649Z,6360.00
2018-07-06T04:39:42.614Z,6124.00
2018-07-06T04:40:42.588Z,6092.00
2018-07-06T04:41:42.615Z,6200.00
2018-07-06T04:42:42.612Z,6344.00
2018-07-06T04:43:42.602Z,6536.00
2018-07-06T04:44:42.618Z,6748.00
2018-07-06T04:45:42.571Z,7056.00
2018-07-06T04:46:42.572Z,7440.00
2018-07-06T04:47:42.560Z,7728.00
2018-07-06T04:48:42.538Z,7800.00
2018-07-06T04:49:42.555Z,7500.00
2018-07-06T04:50:42.525Z,7284.00
2018-07-06T04:51:42.506Z,7284.00
2018-07-06T04:52:42.450Z,7184.00
2018-07-06T04:53:42.486Z,7240.00
2018-07-06T04:54:42.491Z,7244.00
2018-07-06T04:55:42.468Z,7316.00
2018-07-06T04:56:42.504Z,7188.00
2018-07-06T04:57:42.487Z,7020.00
2018-07-06T04:58:42.444Z,7148.00
2018-07-06T04:59:42.420Z,10936.00
2018-07-06T05:00:42.434Z,14640.00
2018-07-06T05:01:42.356Z,12912.00
2018-07-06T05:02:42.390Z,12652.00
2018-07-06T05:03:42.374Z,8764.00
2018-07-06T05:04:42.365Z,7616.00
2018-07-06T05:05:42.415Z,7596.00
2018-07-06T05:06:42.343Z,7884.00
2018-07-06T05:07:42.341Z,9284.00
2018-07-06T05:08:42.317Z,9216.00
2018-07-06T05:09:42.314Z,7688.00
2018-07-06T05:10:42.333Z,7652.00
2018-07-06T05:11:42.289Z,7748.00
2018-07-06T05:12:42.299Z,7812.00
2018-07-06T05:13:42.268Z,7888.00
2018-07-06T05:14:42.258Z,7956.00
2018-07-06T05:15:42.322Z,8008.00
2018-07-06T05:16:42.259Z,8036.00
2018-07-06T05:17:42.230Z,8148.00
2018-07-06T05:18:42.215Z,8308.00
2018-07-06T05:19:42.209Z,8452.00
2018-07-06T05:20:42.217Z,8528.00
2018-07-06T05:21:42.182Z,8600.00
2018-07-06T05:22:42.242Z,8732.00
2018-07-06T05:23:42.160Z,8940.00
2018-07-06T05:24:42.146Z,9124.00
2018-07-06T05:25:42.170Z,9208.00
2018-07-06T05:26:42.128Z,9208.00
2018-07-06T05:27:42.115Z,9136.00
2018-07-06T05:28:42.106Z,9232.00
2018-07-06T05:29:42.097Z,9720.00
2018-07-06T05:30:42.121Z,9700.00
2018-07-06T05:31:42.076Z,10056.00
2018-07-06T05:32:42.077Z,10960.00
2018-07-06T05:33:42.058Z,12132.00
2018-07-06T05:34:42.045Z,11528.00
2018-07-06T05:35:42.058Z,11752.00
2018-07-06T05:36:42.127Z,13852.00
2018-07-06T05:37:42.063Z,13512.00
2018-07-06T05:38:42.002Z,11684.00
2018-07-06T05:39:41.989Z,11172.00
2018-07-06T05:40:42.002Z,11084.00
2018-07-06T05:41:41.970Z,11468.00
2018-07-06T05:42:41.962Z,11880.00
2018-07-06T05:43:41.945Z,11980.00
2018-07-06T05:44:41.938Z,11596.00
2018-07-06T05:45:41.944Z,11188.00
2018-07-06T05:46:41.913Z,11188.00
2018-07-06T05:47:41.906Z,11448.00
2018-07-06T05:48:41.895Z,12480.00
2018-07-06T05:49:41.884Z,12692.00
2018-07-06T05:50:41.887Z,12440.00
2018-07-06T05:51:41.856Z,12436.00
2018-07-06T05:52:41.855Z,12544.00
2018-07-06T05:53:41.872Z,13184.00
2018-07-06T05:54:41.807Z,13348.00
2018-07-06T05:55:41.899Z,13116.00
2018-07-06T05:56:41.803Z,13232.00
2018-07-06T05:57:41.794Z,13056.00
2018-07-06T05:58:41.780Z,12820.00
2018-07-06T05:59:41.763Z,12896.00
2018-07-06T06:00:41.758Z,13240.00
2018-07-06T06:01:41.771Z,13420.00
2018-07-06T06:02:41.732Z,13508.00
2018-07-06T06:03:41.725Z,14080.00
2018-07-06T06:04:41.775Z,14792.00
2018-07-06T06:05:41.712Z,13728.00
2018-07-06T06:06:41.742Z,11392.00
2018-07-06T06:07:41.686Z,10300.00
2018-07-06T06:08:41.635Z,11248.00
2018-07-06T06:09:41.615Z,12632.00
2018-07-06T06:10:41.646Z,13344.00
2018-07-06T06:11:41.669Z,14084.00
2018-07-06T06:12:41.630Z,15476.00
2018-07-06T06:13:41.620Z,15244.00
2018-07-06T06:14:41.612Z,14756.00
2018-07-06T06:15:41.592Z,12680.00
2018-07-06T06:16:41.638Z,11340.00
2018-07-06T06:17:41.574Z,11352.00
2018-07-06T06:18:41.694Z,11416.00
2018-07-06T06:19:41.564Z,11644.00
2018-07-06T06:20:41.552Z,12584.00
2018-07-06T06:21:41.575Z,13332.00
2018-07-06T06:22:41.520Z,12448.00
2018-07-06T06:23:41.509Z,11860.00
2018-07-06T06:24:41.507Z,10904.00
2018-07-06T06:25:41.489Z,9836.00
2018-07-06T06:26:41.509Z,10020.00
2018-07-06T06:27:41.469Z,9016.00
2018-07-06T06:28:41.477Z,7808.00
2018-07-06T06:29:41.414Z,6020.00
2018-07-06T06:30:41.440Z,5956.00
2018-07-06T06:31:41.449Z,6204.00
2018-07-06T06:32:41.416Z,6720.00
2018-07-06T06:33:41.481Z,7272.00
2018-07-06T06:34:41.398Z,8244.00
2018-07-06T06:35:41.375Z,8656.00
2018-07-06T06:36:41.390Z,10096.00
2018-07-06T06:37:41.359Z,9652.00
2018-07-06T06:38:41.302Z,7956.00
2018-07-06T06:39:41.342Z,8320.00
2018-07-06T06:40:41.323Z,8728.00
2018-07-06T06:41:41.339Z,8592.00
2018-07-06T06:42:41.307Z,8808.00
2018-07-06T06:43:41.295Z,9588.00
2018-07-06T06:44:41.332Z,9908.00
2018-07-06T06:45:41.276Z,10304.00
2018-07-06T06:46:41.308Z,10796.00
2018-07-06T06:47:41.250Z,11596.00
2018-07-06T06:48:41.255Z,11900.00
2018-07-06T06:49:41.229Z,10852.00
2018-07-06T06:50:41.256Z,8804.00
2018-07-06T06:51:41.234Z,7904.00
2018-07-06T06:52:41.198Z,7572.00
2018-07-06T06:53:41.193Z,6792.00
2018-07-06T06:54:41.129Z,6612.00
2018-07-06T06:55:41.175Z,6656.00
2018-07-06T06:56:41.135Z,6504.00
2018-07-06T06:57:41.115Z,5972.00
2018-07-06T06:58:41.086Z,5676.00
2018-07-06T06:59:41.124Z,5440.00
2018-07-06T07:00:41.105Z,5104.00
2018-07-06T07:01:41.286Z,4968.00
2018-07-06T07:02:41.090Z,5004.00
2018-07-06T07:03:41.079Z,5148.00
2018-07-06T07:04:41.070Z,5436.00
2018-07-06T07:05:41.059Z,5708.00
2018-07-06T07:06:41.065Z,5860.00
2018-07-06T07:07:41.078Z,5868.00
2018-07-06T07:08:41.019Z,5748.00
2018-07-06T07:09:41.018Z,5456.00
2018-07-06T07:10:41.018Z,5396.00
2018-07-06T07:11:41.019Z,5476.00
2018-07-06T07:12:40.981Z,5360.00
2018-07-06T07:13:41.019Z,5360.00
2018-07-06T07:14:40.952Z,5444.00
2018-07-06T07:15:40.947Z,5528.00
2018-07-06T07:16:40.952Z,5652.00
2018-07-06T07:17:40.946Z,5816.00
2018-07-06T07:18:40.917Z,5964.00
2018-07-06T07:19:40.899Z,6124.00
2018-07-06T07:20:40.928Z,6232.00
2018-07-06T07:21:40.879Z,6324.00
2018-07-06T07:22:40.886Z,6812.00
2018-07-06T07:23:40.840Z,7300.00
2018-07-06T07:24:40.847Z,7376.00
2018-07-06T07:25:40.881Z,7128.00
2018-07-06T07:26:40.830Z,6668.00
2018-07-06T07:27:40.837Z,6276.00
2018-07-06T07:28:40.837Z,6100.00
2018-07-06T07:29:40.788Z,5864.00
2018-07-06T07:30:40.789Z,5760.00
2018-07-06T07:31:40.781Z,5580.00
2018-07-06T07:32:40.780Z,5368.00
2018-07-06T07:33:40.757Z,5392.00
2018-07-06T07:34:40.689Z,5596.00
2018-07-06T07:35:40.740Z,5924.00
2018-07-06T07:36:40.733Z,6352.00
2018-07-06T07:37:40.725Z,6640.00
2018-07-06T07:38:40.700Z,6888.00
2018-07-06T07:39:40.677Z,6956.00
2018-07-06T07:40:40.669Z,6948.00
2018-07-06T07:41:40.671Z,7120.00
2018-07-06T07:42:40.674Z,7524.00
2018-07-06T07:43:40.596Z,8028.00
2018-07-06T07:44:40.620Z,8260.00
2018-07-06T07:45:40.626Z,8412.00
2018-07-06T07:46:40.607Z,8708.00
2018-07-06T07:47:40.612Z,8972.00
2018-07-06T07:48:40.580Z,9144.00
2018-07-06T07:49:40.580Z,10064.00
2018-07-06T07:50:40.568Z,11564.00
2018-07-06T07:51:40.555Z,12584.00
2018-07-06T07:52:40.573Z,13420.00
2018-07-06T07:53:40.539Z,12244.00
2018-07-06T07:54:40.559Z,10528.00
2018-07-06T07:55:40.503Z,9436.00
2018-07-06T07:56:40.495Z,9352.00
2018-07-06T07:57:40.484Z,9844.00
2018-07-06T07:58:40.477Z,10956.00
2018-07-06T07:59:40.464Z,11672.00
2018-07-06T08:00:40.608Z,12556.00
2018-07-06T08:01:40.439Z,13680.00
2018-07-06T08:02:40.424Z,13028.00
2018-07-06T08:03:40.428Z,13316.00
2018-07-06T08:04:40.418Z,14320.00
2018-07-06T08:05:40.492Z,20672.00
2018-07-06T08:06:40.444Z,13584.00
2018-07-06T08:07:40.359Z,16024.00
2018-07-06T08:08:40.368Z,24992.00
2018-07-06T08:09:40.355Z,60416.00
2018-07-06T08:10:40.352Z,58688.00
2018-07-06T08:11:40.348Z,58592.00
2018-07-06T08:12:40.357Z,42720.00
2018-07-06T08:13:40.310Z,22048.00
2018-07-06T08:14:40.306Z,23232.00
2018-07-06T08:15:40.316Z,44288.00
2018-07-06T08:16:40.282Z,58016.00
2018-07-06T08:17:40.307Z,53664.00
2018-07-06T08:18:40.267Z,27136.00
2018-07-06T08:19:40.251Z,19616.00
2018-07-06T08:20:40.234Z,15824.00
2018-07-06T08:21:40.310Z,14384.00
2018-07-06T08:22:40.248Z,14216.00
2018-07-06T08:23:40.214Z,14300.00
2018-07-06T08:24:40.167Z,13380.00
2018-07-06T08:25:40.227Z,12852.00
2018-07-06T08:26:40.172Z,12376.00
2018-07-06T08:27:40.197Z,12772.00
2018-07-06T08:28:40.158Z,12380.00
2018-07-06T08:29:40.137Z,13548.00
2018-07-06T08:30:40.135Z,14168.00
2018-07-06T08:31:40.189Z,13752.00
2018-07-06T08:32:40.127Z,13832.00
2018-07-06T08:33:40.100Z,13484.00
2018-07-06T08:34:40.085Z,11412.00
2018-07-06T08:35:40.081Z,10716.00
2018-07-06T08:36:40.069Z,10632.00
2018-07-06T08:37:40.213Z,11424.00
2018-07-06T08:38:40.047Z,12648.00
2018-07-06T08:39:40.113Z,14004.00
2018-07-06T08:40:40.030Z,15016.00
2018-07-06T08:41:40.013Z,16164.00
2018-07-06T08:42:40.039Z,16704.00
2018-07-06T08:43:39.987Z,19520.00
2018-07-06T08:44:39.989Z,16068.00
2018-07-06T08:45:39.975Z,16336.00
2018-07-06T08:46:39.958Z,15976.00
2018-07-06T08:47:39.988Z,16864.00
2018-07-06T08:48:39.937Z,17568.00
2018-07-06T08:49:39.928Z,14180.00
2018-07-06T08:50:39.871Z,14904.00
2018-07-06T08:51:39.902Z,15188.00
2018-07-06T08:52:39.896Z,15796.00
2018-07-06T08:53:39.914Z,17568.00
2018-07-06T08:54:39.875Z,17216.00
2018-07-06T08:55:39.858Z,14472.00
2018-07-06T08:56:39.862Z,15888.00
2018-07-06T08:57:39.840Z,17696.00
2018-07-06T08:58:39.862Z,20544.00
2018-07-06T08:59:39.774Z,18528.00
2018-07-06T09:00:39.808Z,19296.00
2018-07-06T09:01:39.804Z,21856.00
2018-07-06T09:02:39.795Z,22368.00
2018-07-06T09:03:39.797Z,20512.00
2018-07-06T09:04:39.767Z,18400.00
2018-07-06T09:05:39.771Z,19456.00
2018-07-06T09:06:39.744Z,20352.00
2018-07-06T09:07:39.767Z,21984.00
2018-07-06T09:08:39.744Z,24192.00
2018-07-06T09:09:39.719Z,23328.00
2018-07-06T09:10:39.714Z,23104.00
2018-07-06T09:11:39.690Z,24928.00
2018-07-06T09:12:39.689Z,26336.00
2018-07-06T09:13:39.691Z,25792.00
2018-07-06T09:14:39.658Z,22944.00
2018-07-06T09:15:39.652Z,20608.00
2018-07-06T09:16:39.654Z,19520.00
2018-07-06T09:17:39.690Z,18912.00
2018-07-06T09:18:39.637Z,18112.00
2018-07-06T09:19:39.764Z,17440.00
2018-07-06T09:20:39.593Z,17216.00
2018-07-06T09:21:39.603Z,17344.00
2018-07-06T09:22:39.572Z,17088.00
2018-07-06T09:23:39.593Z,17472.00
2018-07-06T09:24:39.569Z,17120.00
2018-07-06T09:25:39.606Z,16640.00
2018-07-06T09:26:39.531Z,16928.00
2018-07-06T09:27:39.527Z,16704.00
2018-07-06T09:28:39.539Z,15588.00
2018-07-06T09:29:39.497Z,14192.00
2018-07-06T09:30:39.486Z,13596.00
2018-07-06T09:31:39.435Z,13660.00
2018-07-06T09:32:39.417Z,13812.00
2018-07-06T09:33:39.499Z,13608.00
2018-07-06T09:34:39.445Z,13756.00
2018-07-06T09:35:39.455Z,13864.00
2018-07-06T09:36:39.424Z,14064.00
2018-07-06T09:37:39.418Z,14636.00
2018-07-06T09:38:39.387Z,16008.00
2018-07-06T09:39:39.390Z,18048.00
2018-07-06T09:40:39.386Z,19680.00
2018-07-06T09:41:39.386Z,20512.00
2018-07-06T09:42:39.363Z,21568.00
2018-07-06T09:43:39.374Z,21568.00
2018-07-06T09:44:39.339Z,20896.00
2018-07-06T09:45:39.324Z,19968.00
2018-07-06T09:46:39.313Z,19136.00
2018-07-06T09:47:39.275Z,18080.00
2018-07-06T09:48:39.325Z,17888.00
2018-07-06T09:49:39.287Z,17440.00
2018-07-06T09:50:39.269Z,17312.00
2018-07-06T09:51:39.274Z,17440.00
2018-07-06T09:52:39.253Z,18016.00
2018-07-06T09:53:39.261Z,19968.00
2018-07-06T09:54:39.242Z,21888.00
2018-07-06T09:55:39.215Z,22656.00
2018-07-06T09:56:39.205Z,20896.00
2018-07-06T09:57:39.153Z,19904.00
2018-07-06T09:58:39.217Z,19232.00
2018-07-06T09:59:39.178Z,17664.00
2018-07-06T10:00:39.169Z,16452.00
2018-07-06T10:01:39.153Z,16340.00
2018-07-06T10:02:39.150Z,16896.00
2018-07-06T10:03:39.158Z,16660.00
2018-07-06T10:04:39.122Z,18208.00
2018-07-06T10:05:39.135Z,18624.00
2018-07-06T10:06:39.112Z,20064.00
2018-07-06T10:07:39.097Z,21120.00
2018-07-06T10:08:39.107Z,20096.00
2018-07-06T10:09:39.101Z,19008.00
2018-07-06T10:10:39.057Z,17472.00
2018-07-06T10:11:39.052Z,17664.00
2018-07-06T10:12:39.115Z,18016.00
2018-07-06T10:13:39.177Z,19104.00
2018-07-06T10:14:39.023Z,19808.00
2018-07-06T10:15:39.007Z,21120.00
2018-07-06T10:16:38.996Z,21376.00
2018-07-06T10:17:38.987Z,20416.00
2018-07-06T10:18:38.979Z,19136.00
2018-07-06T10:19:39.020Z,18752.00
2018-07-06T10:20:38.956Z,19776.00
2018-07-06T10:21:38.948Z,20032.00
2018-07-06T10:22:38.929Z,19296.00
2018-07-06T10:23:38.928Z,18304.00
2018-07-06T10:24:38.933Z,16848.00
2018-07-06T10:25:38.947Z,15268.00
2018-07-06T10:26:38.887Z,14076.00
2018-07-06T10:27:38.877Z,13564.00
2018-07-06T10:28:38.822Z,11340.00
2018-07-06T10:29:38.873Z,10500.00
2018-07-06T10:30:38.840Z,10868.00
2018-07-06T10:31:38.853Z,10732.00
2018-07-06T10:32:38.823Z,11060.00
2018-07-06T10:33:38.842Z,11192.00
2018-07-06T10:34:38.813Z,11760.00
2018-07-06T10:35:38.790Z,12204.00
2018-07-06T10:36:38.781Z,12604.00
2018-07-06T10:37:38.784Z,12920.00
2018-07-06T10:38:38.763Z,12740.00
2018-07-06T10:39:38.861Z,11916.00
2018-07-06T10:40:38.700Z,10860.00
2018-07-06T10:41:38.721Z,11392.00
2018-07-06T10:42:38.721Z,11484.00
2018-07-06T10:43:38.713Z,11460.00
2018-07-06T10:44:38.746Z,11376.00
2018-07-06T10:45:38.692Z,11564.00
2018-07-06T10:46:38.692Z,11044.00
2018-07-06T10:47:38.662Z,10076.00
2018-07-06T10:48:38.655Z,9536.00
2018-07-06T10:49:38.670Z,9880.00
2018-07-06T10:50:38.632Z,10008.00
2018-07-06T10:51:38.621Z,9832.00
2018-07-06T10:52:38.611Z,9932.00
2018-07-06T10:53:38.603Z,10488.00
2018-07-06T10:54:38.613Z,11740.00
2018-07-06T10:55:38.584Z,12184.00
2018-07-06T10:56:38.569Z,11760.00
2018-07-06T10:57:38.554Z,11184.00
2018-07-06T10:58:38.549Z,10272.00
2018-07-06T10:59:38.555Z,9604.00
2018-07-06T11:00:38.537Z,10312.00
2018-07-06T11:01:38.514Z,9876.00
2018-07-06T11:02:38.506Z,9052.00
2018-07-06T11:03:38.493Z,8600.00
2018-07-06T11:04:38.500Z,8228.00
2018-07-06T11:05:38.477Z,8168.00
2018-07-06T11:06:38.457Z,8348.00
2018-07-06T11:07:38.449Z,8088.00
2018-07-06T11:08:38.444Z,7904.00
2018-07-06T11:09:38.596Z,7816.00
2018-07-06T11:10:38.426Z,7884.00
2018-07-06T11:11:38.445Z,7912.00
2018-07-06T11:12:38.395Z,7768.00
2018-07-06T11:13:38.388Z,7632.00
2018-07-06T11:14:38.403Z,7616.00
2018-07-06T11:15:38.373Z,7420.00
2018-07-06T11:16:38.355Z,7336.00
2018-07-06T11:17:38.337Z,7240.00
2018-07-06T11:18:38.332Z,7236.00
2018-07-06T11:19:38.337Z,7332.00
2018-07-06T11:20:38.329Z,7372.00
2018-07-06T11:21:38.299Z,7376.00
2018-07-06T11:22:38.281Z,7404.00
2018-07-06T11:23:38.281Z,7552.00
2018-07-06T11:24:38.289Z,7636.00
2018-07-06T11:25:38.252Z,7528.00
2018-07-06T11:26:38.245Z,7460.00
2018-07-06T11:27:38.230Z,7368.00
2018-07-06T11:28:38.221Z,7280.00
2018-07-06T11:29:38.211Z,7296.00
2018-07-06T11:30:38.293Z,7204.00
2018-07-06T11:31:38.197Z,7316.00
2018-07-06T11:32:38.199Z,7120.00
2018-07-06T11:33:38.197Z,7132.00
2018-07-06T11:34:38.126Z,7128.00
2018-07-06T11:35:38.171Z,7068.00
2018-07-06T11:36:38.150Z,7048.00
2018-07-06T11:37:38.130Z,6996.00
2018-07-06T11:38:38.109Z,7008.00
2018-07-06T11:39:38.127Z,7012.00
2018-07-06T11:40:38.111Z,6972.00
2018-07-06T11:41:38.092Z,6932.00
2018-07-06T11:42:38.074Z,6900.00
2018-07-06T11:43:38.057Z,6824.00
2018-07-06T11:44:38.051Z,6760.00
2018-07-06T11:45:38.083Z,6736.00
2018-07-06T11:46:37.981Z,6776.00
2018-07-06T11:47:38.017Z,6860.00
2018-07-06T11:48:38.001Z,7052.00
2018-07-06T11:49:37.998Z,7368.00
2018-07-06T11:50:38.006Z,7612.00
2018-07-06T11:51:37.968Z,7488.00
2018-07-06T11:52:37.972Z,7468.00
2018-07-06T11:53:37.946Z,7672.00
2018-07-06T11:54:37.940Z,7848.00
2018-07-06T11:55:37.942Z,7680.00
2018-07-06T11:56:37.928Z,7528.00
2018-07-06T11:57:37.923Z,7428.00
2018-07-06T11:58:37.901Z,7328.00
2018-07-06T11:59:37.887Z,7364.00
2018-07-06T12:00:37.898Z,7332.00
2018-07-06T12:01:37.882Z,7204.00
2018-07-06T12:02:37.846Z,7120.00
2018-07-06T12:03:37.834Z,7008.00
2018-07-06T12:04:37.937Z,6964.00
2018-07-06T12:05:37.926Z,6932.00
2018-07-06T12:06:37.815Z,6900.00
2018-07-06T12:07:37.792Z,6932.00
2018-07-06T12:08:37.786Z,6896.00
2018-07-06T12:09:37.792Z,6924.00
2018-07-06T12:10:37.772Z,6908.00
2018-07-06T12:11:37.756Z,6984.00
2018-07-06T12:12:37.759Z,7052.00
2018-07-06T12:13:37.690Z,6924.00
2018-07-06T12:14:37.723Z,6828.00
2018-07-06T12:15:37.817Z,6764.00